sensor_id;sensor_type;location;lat;lon;timestamp;temperature;humidity
37242;DHT22;23135;51.078;12.108;2022-07-11T00:00:00;12.30;99.90
37242;DHT22;23135;51.078;12.108;2022-07-11T00:02:26;12.30;99.90
37242;DHT22;23135;51.078;12.108;2022-07-11T00:04:52;12.20;99.90
37242;DHT22;23135;51.078;12.108;2022-07-11T00:07:17;12.20;99.90
37242;DHT22;23135;51.078;12.108;2022-07-11T00:09:43;12.20;99.90
37242;DHT22;23135;51.078;12.108;2022-07-11T00:12:11;12.20;99.90
37242;DHT22;23135;51.078;12.108;2022-07-11T00:14:36;12.20;99.90
37242;DHT22;23135;51.078;12.108;2022-07-11T00:17:05;12.20;99.90
37242;DHT22;23135;51.078;12.108;2022-07-11T00:19:31;12.10;99.90
37242;DHT22;23135;51.078;12.108;2022-07-11T00:21:57;12.10;99.90
37242;DHT22;23135;51.078;12.108;2022-07-11T00:24:23;12.10;99.90
37242;DHT22;23135;51.078;12.108;2022-07-11T00:26:50;12.10;99.90
37242;DHT22;23135;51.078;12.108;2022-07-11T00:29:16;12.00;99.90
37242;DHT22;23135;51.078;12.108;2022-07-11T00:31:42;12.00;99.90
37242;DHT22;23135;51.078;12.108;2022-07-11T00:34:08;12.00;99.90
37242;DHT22;23135;51.078;12.108;2022-07-11T00:36:34;12.00;99.90
37242;DHT22;23135;51.078;12.108;2022-07-11T00:39:00;11.90;99.90
37242;DHT22;23135;51.078;12.108;2022-07-11T00:41:25;11.90;99.90
37242;DHT22;23135;51.078;12.108;2022-07-11T00:43:55;11.90;99.90
37242;DHT22;23135;51.078;12.108;2022-07-11T00:46:22;11.90;99.90
37242;DHT22;23135;51.078;12.108;2022-07-11T00:48:48;11.90;99.90
37242;DHT22;23135;51.078;12.108;2022-07-11T00:51:14;11.90;99.90
37242;DHT22;23135;51.078;12.108;2022-07-11T00:53:41;11.80;99.90
37242;DHT22;23135;51.078;12.108;2022-07-11T00:56:07;11.80;99.90
37242;DHT22;23135;51.078;12.108;2022-07-11T00:58:34;11.80;99.90
37242;DHT22;23135;51.078;12.108;2022-07-11T01:01:01;11.80;99.90
37242;DHT22;23135;51.078;12.108;2022-07-11T01:03:26;11.70;99.90
37242;DHT22;23135;51.078;12.108;2022-07-11T01:05:52;11.70;99.90
37242;DHT22;23135;51.078;12.108;2022-07-11T01:08:18;11.70;99.90
37242;DHT22;23135;51.078;12.108;2022-07-11T01:10:43;11.70;99.90
37242;DHT22;23135;51.078;12.108;2022-07-11T01:13:09;11.70;99.90
37242;DHT22;23135;51.078;12.108;2022-07-11T01:15:35;11.60;99.90
37242;DHT22;23135;51.078;12.108;2022-07-11T01:18:02;11.60;99.90
37242;DHT22;23135;51.078;12.108;2022-07-11T01:20:28;11.60;99.90
37242;DHT22;23135;51.078;12.108;2022-07-11T01:22:55;11.60;99.90
37242;DHT22;23135;51.078;12.108;2022-07-11T01:25:23;11.50;99.90
37242;DHT22;23135;51.078;12.108;2022-07-11T01:28:02;11.50;99.90
37242;DHT22;23135;51.078;12.108;2022-07-11T01:30:30;11.50;99.90
37242;DHT22;23135;51.078;12.108;2022-07-11T01:32:57;11.50;99.90
37242;DHT22;23135;51.078;12.108;2022-07-11T01:35:23;11.50;99.90
37242;DHT22;23135;51.078;12.108;2022-07-11T01:37:50;11.50;99.90
37242;DHT22;23135;51.078;12.108;2022-07-11T01:40:16;11.60;99.90
37242;DHT22;23135;51.078;12.108;2022-07-11T01:42:42;11.60;99.90
37242;DHT22;23135;51.078;12.108;2022-07-11T01:45:09;11.60;99.90
37242;DHT22;23135;51.078;12.108;2022-07-11T01:47:35;11.70;99.90
37242;DHT22;23135;51.078;12.108;2022-07-11T01:50:00;11.80;99.90
37242;DHT22;23135;51.078;12.108;2022-07-11T01:52:26;11.90;99.90
37242;DHT22;23135;51.078;12.108;2022-07-11T01:54:53;11.90;99.90
37242;DHT22;23135;51.078;12.108;2022-07-11T01:57:18;12.00;99.90
37242;DHT22;23135;51.078;12.108;2022-07-11T01:59:44;12.00;99.90
37242;DHT22;23135;51.078;12.108;2022-07-11T02:02:09;12.00;99.90
37242;DHT22;23135;51.078;12.108;2022-07-11T02:04:35;12.00;99.90
37242;DHT22;23135;51.078;12.108;2022-07-11T02:07:00;12.00;99.90
37242;DHT22;23135;51.078;12.108;2022-07-11T02:09:26;12.10;99.90
37242;DHT22;23135;51.078;12.108;2022-07-11T02:11:52;12.20;99.90
37242;DHT22;23135;51.078;12.108;2022-07-11T02:14:17;12.20;99.90
37242;DHT22;23135;51.078;12.108;2022-07-11T02:16:43;12.20;99.90
37242;DHT22;23135;51.078;12.108;2022-07-11T02:19:09;12.20;99.90
37242;DHT22;23135;51.078;12.108;2022-07-11T02:21:36;12.20;99.90
37242;DHT22;23135;51.078;12.108;2022-07-11T02:24:02;12.20;99.90
37242;DHT22;23135;51.078;12.108;2022-07-11T02:26:28;12.20;99.90
37242;DHT22;23135;51.078;12.108;2022-07-11T02:28:53;12.30;99.90
37242;DHT22;23135;51.078;12.108;2022-07-11T02:31:19;12.30;99.90
37242;DHT22;23135;51.078;12.108;2022-07-11T02:33:45;12.20;99.90
37242;DHT22;23135;51.078;12.108;2022-07-11T02:36:11;12.20;99.90
37242;DHT22;23135;51.078;12.108;2022-07-11T02:38:37;12.20;99.90
37242;DHT22;23135;51.078;12.108;2022-07-11T02:41:02;12.20;99.90
37242;DHT22;23135;51.078;12.108;2022-07-11T02:43:28;12.20;99.90
37242;DHT22;23135;51.078;12.108;2022-07-11T02:45:55;12.10;99.90
37242;DHT22;23135;51.078;12.108;2022-07-11T02:48:20;12.00;99.90
37242;DHT22;23135;51.078;12.108;2022-07-11T02:50:46;12.00;99.90
37242;DHT22;23135;51.078;12.108;2022-07-11T02:53:12;12.00;99.90
37242;DHT22;23135;51.078;12.108;2022-07-11T02:55:37;11.80;99.90
37242;DHT22;23135;51.078;12.108;2022-07-11T02:58:03;11.80;99.90
37242;DHT22;23135;51.078;12.108;2022-07-11T03:00:29;11.80;99.90
37242;DHT22;23135;51.078;12.108;2022-07-11T03:02:55;11.70;99.90
37242;DHT22;23135;51.078;12.108;2022-07-11T03:05:20;11.70;99.90
37242;DHT22;23135;51.078;12.108;2022-07-11T03:07:46;11.70;99.90
37242;DHT22;23135;51.078;12.108;2022-07-11T03:10:12;11.70;99.90
37242;DHT22;23135;51.078;12.108;2022-07-11T03:12:37;11.70;99.90
37242;DHT22;23135;51.078;12.108;2022-07-11T03:15:04;11.70;99.90
37242;DHT22;23135;51.078;12.108;2022-07-11T03:17:30;11.70;99.90
37242;DHT22;23135;51.078;12.108;2022-07-11T03:19:55;11.70;99.90
37242;DHT22;23135;51.078;12.108;2022-07-11T03:22:21;11.70;99.90
37242;DHT22;23135;51.078;12.108;2022-07-11T03:24:48;11.60;99.90
37242;DHT22;23135;51.078;12.108;2022-07-11T03:27:16;11.60;99.90
37242;DHT22;23135;51.078;12.108;2022-07-11T03:29:42;11.60;99.90
37242;DHT22;23135;51.078;12.108;2022-07-11T03:32:09;11.50;99.90
37242;DHT22;23135;51.078;12.108;2022-07-11T03:34:34;11.50;99.90
37242;DHT22;23135;51.078;12.108;2022-07-11T03:37:00;11.40;99.90
37242;DHT22;23135;51.078;12.108;2022-07-11T03:39:26;11.40;99.90
37242;DHT22;23135;51.078;12.108;2022-07-11T03:41:52;11.40;99.90
37242;DHT22;23135;51.078;12.108;2022-07-11T03:44:18;11.40;99.90
37242;DHT22;23135;51.078;12.108;2022-07-11T03:46:44;11.40;99.90
37242;DHT22;23135;51.078;12.108;2022-07-11T03:49:10;11.40;99.90
37242;DHT22;23135;51.078;12.108;2022-07-11T03:51:35;11.40;99.90
37242;DHT22;23135;51.078;12.108;2022-07-11T03:54:01;11.40;99.90
37242;DHT22;23135;51.078;12.108;2022-07-11T03:56:27;11.30;99.90
37242;DHT22;23135;51.078;12.108;2022-07-11T03:58:52;11.40;99.90
37242;DHT22;23135;51.078;12.108;2022-07-11T04:01:18;11.40;99.90
37242;DHT22;23135;51.078;12.108;2022-07-11T04:03:47;11.40;99.90
37242;DHT22;23135;51.078;12.108;2022-07-11T04:06:13;11.40;99.90
37242;DHT22;23135;51.078;12.108;2022-07-11T04:08:39;11.40;99.90
37242;DHT22;23135;51.078;12.108;2022-07-11T04:11:05;11.50;99.90
37242;DHT22;23135;51.078;12.108;2022-07-11T04:13:31;11.50;99.90
37242;DHT22;23135;51.078;12.108;2022-07-11T04:15:56;11.60;99.90
37242;DHT22;23135;51.078;12.108;2022-07-11T04:18:22;11.60;99.90
37242;DHT22;23135;51.078;12.108;2022-07-11T04:20:48;11.60;99.90
37242;DHT22;23135;51.078;12.108;2022-07-11T04:23:17;11.70;99.90
37242;DHT22;23135;51.078;12.108;2022-07-11T04:25:43;11.80;99.90
37242;DHT22;23135;51.078;12.108;2022-07-11T04:28:09;11.90;99.90
37242;DHT22;23135;51.078;12.108;2022-07-11T04:30:35;12.00;99.90
37242;DHT22;23135;51.078;12.108;2022-07-11T04:33:00;12.10;99.90
37242;DHT22;23135;51.078;12.108;2022-07-11T04:35:27;12.10;99.90
37242;DHT22;23135;51.078;12.108;2022-07-11T04:37:53;12.20;99.90
37242;DHT22;23135;51.078;12.108;2022-07-11T04:40:19;12.30;99.90
37242;DHT22;23135;51.078;12.108;2022-07-11T04:42:46;12.40;99.90
37242;DHT22;23135;51.078;12.108;2022-07-11T04:45:13;12.50;99.90
37242;DHT22;23135;51.078;12.108;2022-07-11T04:47:38;12.60;99.90
37242;DHT22;23135;51.078;12.108;2022-07-11T04:50:04;12.70;99.90
37242;DHT22;23135;51.078;12.108;2022-07-11T04:52:30;12.80;99.90
37242;DHT22;23135;51.078;12.108;2022-07-11T04:54:56;12.90;99.90
37242;DHT22;23135;51.078;12.108;2022-07-11T04:57:21;13.00;99.90
37242;DHT22;23135;51.078;12.108;2022-07-11T04:59:47;13.00;99.90
37242;DHT22;23135;51.078;12.108;2022-07-11T05:02:12;13.10;99.90
37242;DHT22;23135;51.078;12.108;2022-07-11T05:04:38;13.20;99.90
37242;DHT22;23135;51.078;12.108;2022-07-11T05:07:04;13.20;99.90
37242;DHT22;23135;51.078;12.108;2022-07-11T05:09:30;13.30;99.90
37242;DHT22;23135;51.078;12.108;2022-07-11T05:11:55;13.30;99.90
37242;DHT22;23135;51.078;12.108;2022-07-11T05:14:21;13.40;99.90
37242;DHT22;23135;51.078;12.108;2022-07-11T05:16:47;13.50;99.90
37242;DHT22;23135;51.078;12.108;2022-07-11T05:19:12;13.50;99.90
37242;DHT22;23135;51.078;12.108;2022-07-11T05:21:38;13.60;99.90
37242;DHT22;23135;51.078;12.108;2022-07-11T05:24:04;13.60;99.90
37242;DHT22;23135;51.078;12.108;2022-07-11T05:26:29;13.50;99.90
37242;DHT22;23135;51.078;12.108;2022-07-11T05:28:55;13.60;99.90
37242;DHT22;23135;51.078;12.108;2022-07-11T05:31:21;13.70;99.90
37242;DHT22;23135;51.078;12.108;2022-07-11T05:33:46;13.70;99.90
37242;DHT22;23135;51.078;12.108;2022-07-11T05:36:12;13.90;99.90
37242;DHT22;23135;51.078;12.108;2022-07-11T05:38:38;14.10;99.90
37242;DHT22;23135;51.078;12.108;2022-07-11T05:41:04;14.20;99.90
37242;DHT22;23135;51.078;12.108;2022-07-11T05:43:29;14.40;99.90
37242;DHT22;23135;51.078;12.108;2022-07-11T05:45:55;14.60;99.90
37242;DHT22;23135;51.078;12.108;2022-07-11T05:48:21;14.70;99.90
37242;DHT22;23135;51.078;12.108;2022-07-11T05:50:46;15.00;99.90
37242;DHT22;23135;51.078;12.108;2022-07-11T05:53:12;15.20;99.90
37242;DHT22;23135;51.078;12.108;2022-07-11T05:55:38;15.20;99.90
37242;DHT22;23135;51.078;12.108;2022-07-11T05:58:03;15.40;99.90
37242;DHT22;23135;51.078;12.108;2022-07-11T06:00:29;15.40;99.90
37242;DHT22;23135;51.078;12.108;2022-07-11T06:02:55;15.40;99.90
37242;DHT22;23135;51.078;12.108;2022-07-11T06:05:20;15.30;99.90
37242;DHT22;23135;51.078;12.108;2022-07-11T06:07:46;15.30;99.90
37242;DHT22;23135;51.078;12.108;2022-07-11T06:10:34;15.20;99.90
37242;DHT22;23135;51.078;12.108;2022-07-11T06:13:00;15.10;99.90
37242;DHT22;23135;51.078;12.108;2022-07-11T06:15:26;15.10;99.90
37242;DHT22;23135;51.078;12.108;2022-07-11T06:17:51;15.10;99.90
37242;DHT22;23135;51.078;12.108;2022-07-11T06:20:17;15.40;99.90
37242;DHT22;23135;51.078;12.108;2022-07-11T06:22:42;15.50;99.90
37242;DHT22;23135;51.078;12.108;2022-07-11T06:25:08;15.40;99.90
37242;DHT22;23135;51.078;12.108;2022-07-11T06:27:35;15.40;99.90
37242;DHT22;23135;51.078;12.108;2022-07-11T06:30:01;15.20;99.90
37242;DHT22;23135;51.078;12.108;2022-07-11T06:32:27;15.10;99.90
37242;DHT22;23135;51.078;12.108;2022-07-11T06:34:53;14.90;99.90
37242;DHT22;23135;51.078;12.108;2022-07-11T06:37:19;14.80;99.90
37242;DHT22;23135;51.078;12.108;2022-07-11T06:39:44;15.00;99.90
37242;DHT22;23135;51.078;12.108;2022-07-11T06:42:10;15.00;99.90
37242;DHT22;23135;51.078;12.108;2022-07-11T06:44:35;15.10;99.90
37242;DHT22;23135;51.078;12.108;2022-07-11T06:47:01;15.00;99.90
37242;DHT22;23135;51.078;12.108;2022-07-11T06:49:27;14.90;99.90
37242;DHT22;23135;51.078;12.108;2022-07-11T06:51:52;15.00;99.90
37242;DHT22;23135;51.078;12.108;2022-07-11T06:54:18;15.40;99.90
37242;DHT22;23135;51.078;12.108;2022-07-11T06:56:43;15.80;99.90
37242;DHT22;23135;51.078;12.108;2022-07-11T06:59:09;15.90;99.90
37242;DHT22;23135;51.078;12.108;2022-07-11T07:01:35;15.80;99.90
37242;DHT22;23135;51.078;12.108;2022-07-11T07:04:00;15.70;99.90
37242;DHT22;23135;51.078;12.108;2022-07-11T07:06:26;15.60;99.90
37242;DHT22;23135;51.078;12.108;2022-07-11T07:08:52;15.60;99.90
37242;DHT22;23135;51.078;12.108;2022-07-11T07:11:17;15.60;99.90
37242;DHT22;23135;51.078;12.108;2022-07-11T07:13:44;16.20;99.90
37242;DHT22;23135;51.078;12.108;2022-07-11T07:16:11;16.50;99.90
37242;DHT22;23135;51.078;12.108;2022-07-11T07:18:37;16.70;99.90
37242;DHT22;23135;51.078;12.108;2022-07-11T07:21:08;17.10;99.90
37242;DHT22;23135;51.078;12.108;2022-07-11T07:23:33;17.50;99.90
37242;DHT22;23135;51.078;12.108;2022-07-11T07:25:59;17.40;99.90
37242;DHT22;23135;51.078;12.108;2022-07-11T07:28:24;17.50;99.90
37242;DHT22;23135;51.078;12.108;2022-07-11T07:30:53;17.70;99.90
37242;DHT22;23135;51.078;12.108;2022-07-11T07:33:19;17.90;99.90
37242;DHT22;23135;51.078;12.108;2022-07-11T07:35:44;17.80;99.90
37242;DHT22;23135;51.078;12.108;2022-07-11T07:38:10;17.90;99.90
37242;DHT22;23135;51.078;12.108;2022-07-11T07:40:36;18.00;99.90
37242;DHT22;23135;51.078;12.108;2022-07-11T07:43:01;18.10;99.90
37242;DHT22;23135;51.078;12.108;2022-07-11T07:45:27;18.40;99.90
37242;DHT22;23135;51.078;12.108;2022-07-11T07:47:52;18.50;99.40
37242;DHT22;23135;51.078;12.108;2022-07-11T07:50:18;18.60;99.10
37242;DHT22;23135;51.078;12.108;2022-07-11T07:52:43;18.60;99.40
37242;DHT22;23135;51.078;12.108;2022-07-11T07:55:09;19.20;98.60
37242;DHT22;23135;51.078;12.108;2022-07-11T07:57:34;19.60;98.30
37242;DHT22;23135;51.078;12.108;2022-07-11T08:00:01;19.40;97.80
37242;DHT22;23135;51.078;12.108;2022-07-11T08:02:45;19.00;96.10
37242;DHT22;23135;51.078;12.108;2022-07-11T08:05:11;18.60;98.50
37242;DHT22;23135;51.078;12.108;2022-07-11T08:07:37;18.80;98.00
37242;DHT22;23135;51.078;12.108;2022-07-11T08:10:06;19.30;99.20
37242;DHT22;23135;51.078;12.108;2022-07-11T08:12:32;19.50;94.30
37242;DHT22;23135;51.078;12.108;2022-07-11T08:14:57;19.80;96.60
37242;DHT22;23135;51.078;12.108;2022-07-11T08:17:23;19.80;95.80
37242;DHT22;23135;51.078;12.108;2022-07-11T08:19:48;19.50;94.60
37242;DHT22;23135;51.078;12.108;2022-07-11T08:22:14;19.00;96.10
37242;DHT22;23135;51.078;12.108;2022-07-11T08:24:39;19.10;95.50
37242;DHT22;23135;51.078;12.108;2022-07-11T08:27:05;18.70;96.50
37242;DHT22;23135;51.078;12.108;2022-07-11T08:29:30;18.40;97.20
37242;DHT22;23135;51.078;12.108;2022-07-11T08:31:56;19.00;96.70
37242;DHT22;23135;51.078;12.108;2022-07-11T08:34:21;19.10;95.80
37242;DHT22;23135;51.078;12.108;2022-07-11T08:36:47;19.00;96.20
37242;DHT22;23135;51.078;12.108;2022-07-11T08:39:13;18.60;95.70
37242;DHT22;23135;51.078;12.108;2022-07-11T08:41:43;18.60;96.90
37242;DHT22;23135;51.078;12.108;2022-07-11T08:44:08;19.40;95.40
37242;DHT22;23135;51.078;12.108;2022-07-11T08:46:36;20.00;93.80
37242;DHT22;23135;51.078;12.108;2022-07-11T08:49:02;20.40;92.40
37242;DHT22;23135;51.078;12.108;2022-07-11T08:51:29;20.60;90.70
37242;DHT22;23135;51.078;12.108;2022-07-11T08:53:55;20.40;90.60
37242;DHT22;23135;51.078;12.108;2022-07-11T08:56:21;19.60;91.20
37242;DHT22;23135;51.078;12.108;2022-07-11T08:58:47;19.10;92.70
37242;DHT22;23135;51.078;12.108;2022-07-11T09:01:17;18.80;94.00
37242;DHT22;23135;51.078;12.108;2022-07-11T09:03:43;18.40;94.10
37242;DHT22;23135;51.078;12.108;2022-07-11T09:06:10;18.50;92.70
37242;DHT22;23135;51.078;12.108;2022-07-11T09:08:36;18.40;95.00
37242;DHT22;23135;51.078;12.108;2022-07-11T09:11:03;19.20;95.50
37242;DHT22;23135;51.078;12.108;2022-07-11T09:13:30;20.20;93.70
37242;DHT22;23135;51.078;12.108;2022-07-11T09:16:06;20.90;87.60
37242;DHT22;23135;51.078;12.108;2022-07-11T09:18:39;20.60;84.50
37242;DHT22;23135;51.078;12.108;2022-07-11T09:21:10;19.90;89.30
37242;DHT22;23135;51.078;12.108;2022-07-11T09:23:57;19.40;90.30
37242;DHT22;23135;51.078;12.108;2022-07-11T09:26:43;18.90;91.00
37242;DHT22;23135;51.078;12.108;2022-07-11T09:29:10;19.50;92.80
37242;DHT22;23135;51.078;12.108;2022-07-11T09:31:38;20.20;88.80
37242;DHT22;23135;51.078;12.108;2022-07-11T09:34:06;21.20;90.70
37242;DHT22;23135;51.078;12.108;2022-07-11T09:36:41;21.80;86.30
37242;DHT22;23135;51.078;12.108;2022-07-11T09:39:11;20.80;87.60
37242;DHT22;23135;51.078;12.108;2022-07-11T09:41:38;20.20;90.10
37242;DHT22;23135;51.078;12.108;2022-07-11T09:44:17;19.80;91.50
37242;DHT22;23135;51.078;12.108;2022-07-11T09:46:45;19.50;90.90
37242;DHT22;23135;51.078;12.108;2022-07-11T09:49:12;20.30;93.10
37242;DHT22;23135;51.078;12.108;2022-07-11T09:51:39;21.10;89.80
37242;DHT22;23135;51.078;12.108;2022-07-11T09:54:05;21.30;84.70
37242;DHT22;23135;51.078;12.108;2022-07-11T09:56:39;21.70;87.20
37242;DHT22;23135;51.078;12.108;2022-07-11T09:59:06;21.70;85.30
37242;DHT22;23135;51.078;12.108;2022-07-11T10:01:32;21.70;85.10
37242;DHT22;23135;51.078;12.108;2022-07-11T10:03:58;21.60;82.90
37242;DHT22;23135;51.078;12.108;2022-07-11T10:06:24;21.60;82.60
37242;DHT22;23135;51.078;12.108;2022-07-11T10:08:53;22.10;81.80
37242;DHT22;23135;51.078;12.108;2022-07-11T10:11:20;22.10;81.20
37242;DHT22;23135;51.078;12.108;2022-07-11T10:13:46;22.50;81.60
37242;DHT22;23135;51.078;12.108;2022-07-11T10:19:30;22.00;80.80
37242;DHT22;23135;51.078;12.108;2022-07-11T10:22:08;21.00;84.20
37242;DHT22;23135;51.078;12.108;2022-07-11T10:24:53;20.50;84.10
37242;DHT22;23135;51.078;12.108;2022-07-11T10:27:36;20.30;86.40
37242;DHT22;23135;51.078;12.108;2022-07-11T10:30:04;20.20;88.50
37242;DHT22;23135;51.078;12.108;2022-07-11T10:32:30;20.60;86.20
37242;DHT22;23135;51.078;12.108;2022-07-11T10:35:09;21.10;82.60
37242;DHT22;23135;51.078;12.108;2022-07-11T10:37:53;21.70;81.70
37242;DHT22;23135;51.078;12.108;2022-07-11T10:40:54;22.10;78.70
37242;DHT22;23135;51.078;12.108;2022-07-11T10:45:59;22.80;76.10
37242;DHT22;23135;51.078;12.108;2022-07-11T10:48:27;23.20;76.70
37242;DHT22;23135;51.078;12.108;2022-07-11T10:51:14;23.50;75.60
37242;DHT22;23135;51.078;12.108;2022-07-11T10:53:46;23.20;73.80
37242;DHT22;23135;51.078;12.108;2022-07-11T11:01:33;22.60;75.80
37242;DHT22;23135;51.078;12.108;2022-07-11T11:07:02;23.40;73.10
37242;DHT22;23135;51.078;12.108;2022-07-11T11:09:36;22.60;74.90
37242;DHT22;23135;51.078;12.108;2022-07-11T11:12:03;22.70;75.30
37242;DHT22;23135;51.078;12.108;2022-07-11T11:14:29;22.80;75.70
37242;DHT22;23135;51.078;12.108;2022-07-11T11:16:55;22.40;77.10
37242;DHT22;23135;51.078;12.108;2022-07-11T11:22:18;22.90;75.40
37242;DHT22;23135;51.078;12.108;2022-07-11T11:24:46;23.30;73.60
37242;DHT22;23135;51.078;12.108;2022-07-11T11:27:30;23.60;72.70
37242;DHT22;23135;51.078;12.108;2022-07-11T11:29:56;23.60;72.60
37242;DHT22;23135;51.078;12.108;2022-07-11T11:32:29;23.60;73.60
37242;DHT22;23135;51.078;12.108;2022-07-11T11:34:59;24.00;73.10
37242;DHT22;23135;51.078;12.108;2022-07-11T11:37:25;23.90;70.90
37242;DHT22;23135;51.078;12.108;2022-07-11T11:39:57;23.20;73.60
37242;DHT22;23135;51.078;12.108;2022-07-11T11:42:22;23.20;73.50
37242;DHT22;23135;51.078;12.108;2022-07-11T11:45:03;23.30;74.40
37242;DHT22;23135;51.078;12.108;2022-07-11T11:47:30;23.50;73.20
37242;DHT22;23135;51.078;12.108;2022-07-11T11:49:56;23.50;73.40
37242;DHT22;23135;51.078;12.108;2022-07-11T11:52:22;23.10;73.20
37242;DHT22;23135;51.078;12.108;2022-07-11T11:54:53;22.50;75.60
37242;DHT22;23135;51.078;12.108;2022-07-11T11:57:21;21.90;76.30
37242;DHT22;23135;51.078;12.108;2022-07-11T11:59:47;21.50;77.40
37242;DHT22;23135;51.078;12.108;2022-07-11T12:02:21;21.90;78.20
37242;DHT22;23135;51.078;12.108;2022-07-11T12:04:46;22.80;77.10
37242;DHT22;23135;51.078;12.108;2022-07-11T12:07:12;23.50;73.70
37242;DHT22;23135;51.078;12.108;2022-07-11T12:09:37;23.70;70.70
37242;DHT22;23135;51.078;12.108;2022-07-11T12:12:16;24.10;73.80
37242;DHT22;23135;51.078;12.108;2022-07-11T12:15:00;24.40;71.10
37242;DHT22;23135;51.078;12.108;2022-07-11T12:17:27;24.30;68.70
37242;DHT22;23135;51.078;12.108;2022-07-11T12:19:54;24.40;68.50
37242;DHT22;23135;51.078;12.108;2022-07-11T12:22:20;24.40;69.00
37242;DHT22;23135;51.078;12.108;2022-07-11T12:24:50;24.10;68.50
37242;DHT22;23135;51.078;12.108;2022-07-11T12:27:21;23.40;68.30
37242;DHT22;23135;51.078;12.108;2022-07-11T12:29:46;23.40;69.20
37242;DHT22;23135;51.078;12.108;2022-07-11T12:32:18;23.00;69.70
37242;DHT22;23135;51.078;12.108;2022-07-11T12:34:45;23.10;70.20
37242;DHT22;23135;51.078;12.108;2022-07-11T12:37:19;23.90;67.80
37242;DHT22;23135;51.078;12.108;2022-07-11T12:39:53;24.30;67.80
37242;DHT22;23135;51.078;12.108;2022-07-11T12:42:28;24.70;67.00
37242;DHT22;23135;51.078;12.108;2022-07-11T12:47:28;25.10;65.50
37242;DHT22;23135;51.078;12.108;2022-07-11T12:49:55;25.30;64.70
37242;DHT22;23135;51.078;12.108;2022-07-11T12:52:21;25.10;65.40
37242;DHT22;23135;51.078;12.108;2022-07-11T12:54:47;25.30;64.60
37242;DHT22;23135;51.078;12.108;2022-07-11T12:57:21;25.50;65.60
37242;DHT22;23135;51.078;12.108;2022-07-11T12:59:47;25.20;65.50
37242;DHT22;23135;51.078;12.108;2022-07-11T13:02:14;25.60;65.60
37242;DHT22;23135;51.078;12.108;2022-07-11T13:04:50;25.60;63.10
37242;DHT22;23135;51.078;12.108;2022-07-11T13:07:32;25.50;64.50
37242;DHT22;23135;51.078;12.108;2022-07-11T13:10:24;25.50;65.60
37242;DHT22;23135;51.078;12.108;2022-07-11T13:12:52;25.30;64.90
37242;DHT22;23135;51.078;12.108;2022-07-11T13:15:18;25.30;64.90
37242;DHT22;23135;51.078;12.108;2022-07-11T13:17:49;25.50;65.00
37242;DHT22;23135;51.078;12.108;2022-07-11T13:20:20;25.60;65.30
37242;DHT22;23135;51.078;12.108;2022-07-11T13:22:47;26.00;64.90
37242;DHT22;23135;51.078;12.108;2022-07-11T13:25:15;26.20;62.60
37242;DHT22;23135;51.078;12.108;2022-07-11T13:27:42;26.20;63.10
37242;DHT22;23135;51.078;12.108;2022-07-11T13:30:10;26.40;62.50
37242;DHT22;23135;51.078;12.108;2022-07-11T13:32:38;26.20;62.90
37242;DHT22;23135;51.078;12.108;2022-07-11T13:35:05;25.90;63.60
37242;DHT22;23135;51.078;12.108;2022-07-11T13:37:31;25.30;63.00
37242;DHT22;23135;51.078;12.108;2022-07-11T13:39:56;24.70;63.30
37242;DHT22;23135;51.078;12.108;2022-07-11T13:42:22;24.10;64.00
37242;DHT22;23135;51.078;12.108;2022-07-11T13:44:48;24.00;66.20
37242;DHT22;23135;51.078;12.108;2022-07-11T13:47:13;24.20;65.40
37242;DHT22;23135;51.078;12.108;2022-07-11T13:49:39;25.00;65.70
37242;DHT22;23135;51.078;12.108;2022-07-11T13:52:05;25.10;64.80
37242;DHT22;23135;51.078;12.108;2022-07-11T13:54:31;24.90;64.60
37242;DHT22;23135;51.078;12.108;2022-07-11T13:56:58;24.90;63.80
37242;DHT22;23135;51.078;12.108;2022-07-11T13:59:23;24.80;63.50
37242;DHT22;23135;51.078;12.108;2022-07-11T14:01:49;24.90;64.90
37242;DHT22;23135;51.078;12.108;2022-07-11T14:04:14;24.60;63.70
37242;DHT22;23135;51.078;12.108;2022-07-11T14:06:40;24.70;65.20
37242;DHT22;23135;51.078;12.108;2022-07-11T14:09:06;25.10;64.90
37242;DHT22;23135;51.078;12.108;2022-07-11T14:11:32;25.50;65.40
37242;DHT22;23135;51.078;12.108;2022-07-11T14:13:58;25.80;64.70
37242;DHT22;23135;51.078;12.108;2022-07-11T14:16:24;25.90;63.70
37242;DHT22;23135;51.078;12.108;2022-07-11T14:18:50;25.70;62.20
37242;DHT22;23135;51.078;12.108;2022-07-11T14:21:16;25.70;62.40
37242;DHT22;23135;51.078;12.108;2022-07-11T14:23:42;25.40;61.70
37242;DHT22;23135;51.078;12.108;2022-07-11T14:26:08;25.40;61.40
37242;DHT22;23135;51.078;12.108;2022-07-11T14:28:35;25.40;61.80
37242;DHT22;23135;51.078;12.108;2022-07-11T14:31:00;25.50;61.90
37242;DHT22;23135;51.078;12.108;2022-07-11T14:33:26;25.60;61.50
37242;DHT22;23135;51.078;12.108;2022-07-11T14:35:52;25.30;61.00
37242;DHT22;23135;51.078;12.108;2022-07-11T14:38:17;24.40;62.10
37242;DHT22;23135;51.078;12.108;2022-07-11T14:40:43;24.00;63.80
37242;DHT22;23135;51.078;12.108;2022-07-11T14:43:09;23.50;64.30
37242;DHT22;23135;51.078;12.108;2022-07-11T14:45:34;23.80;65.00
37242;DHT22;23135;51.078;12.108;2022-07-11T14:48:00;23.90;64.40
37242;DHT22;23135;51.078;12.108;2022-07-11T14:50:25;23.60;65.20
37242;DHT22;23135;51.078;12.108;2022-07-11T14:52:51;23.70;64.10
37242;DHT22;23135;51.078;12.108;2022-07-11T14:55:17;23.80;64.70
37242;DHT22;23135;51.078;12.108;2022-07-11T14:57:42;23.90;65.00
37242;DHT22;23135;51.078;12.108;2022-07-11T15:00:08;24.10;64.30
37242;DHT22;23135;51.078;12.108;2022-07-11T15:02:34;24.00;64.20
37242;DHT22;23135;51.078;12.108;2022-07-11T15:05:18;24.00;65.10
37242;DHT22;23135;51.078;12.108;2022-07-11T15:07:43;23.50;64.80
37242;DHT22;23135;51.078;12.108;2022-07-11T15:10:28;23.10;66.30
37242;DHT22;23135;51.078;12.108;2022-07-11T15:13:12;22.80;67.80
37242;DHT22;23135;51.078;12.108;2022-07-11T15:15:37;22.80;68.70
37242;DHT22;23135;51.078;12.108;2022-07-11T15:18:03;23.10;68.30
37242;DHT22;23135;51.078;12.108;2022-07-11T15:20:28;23.30;69.00
37242;DHT22;23135;51.078;12.108;2022-07-11T15:22:54;23.10;67.30
37242;DHT22;23135;51.078;12.108;2022-07-11T15:25:19;22.90;67.90
37242;DHT22;23135;51.078;12.108;2022-07-11T15:27:46;22.80;68.10
37242;DHT22;23135;51.078;12.108;2022-07-11T15:30:12;22.90;66.80
37242;DHT22;23135;51.078;12.108;2022-07-11T15:32:39;23.10;67.50
37242;DHT22;23135;51.078;12.108;2022-07-11T15:35:05;23.30;66.80